createdAt,value
2022-10-17T00:00:20.616Z,20.72
2022-10-17T00:03:06.402Z,20.71
2022-10-17T00:05:51.740Z,20.71
2022-10-17T00:08:37.967Z,20.69
2022-10-17T00:11:24.785Z,20.69
2022-10-17T00:14:09.920Z,20.67
2022-10-17T00:16:55.110Z,20.67
2022-10-17T00:19:40.372Z,20.67
2022-10-17T00:22:26.357Z,20.67
2022-10-17T00:25:12.974Z,20.66
2022-10-17T00:27:58.003Z,20.66
2022-10-17T00:30:43.282Z,20.64
2022-10-17T00:33:30.883Z,20.64
2022-10-17T00:36:19.471Z,20.63
2022-10-17T00:39:04.836Z,20.62
2022-10-17T00:41:51.307Z,20.62
2022-10-17T00:44:36.544Z,20.61
2022-10-17T00:47:23.074Z,20.60
2022-10-17T00:50:09.591Z,20.60
2022-10-17T00:52:58.720Z,20.59
2022-10-17T00:55:54.134Z,20.59
2022-10-17T00:58:39.602Z,20.59
2022-10-17T01:01:25.572Z,20.58
2022-10-17T01:04:11.003Z,20.57
2022-10-17T01:06:58.443Z,20.55
2022-10-17T01:09:46.239Z,20.55
2022-10-17T01:12:41.196Z,20.55
2022-10-17T01:15:37.029Z,20.54
2022-10-17T01:18:49.204Z,20.52
2022-10-17T01:22:06.794Z,20.53
2022-10-17T01:25:04.235Z,20.52
2022-10-17T01:28:01.972Z,20.50
2022-10-17T01:31:05.569Z,20.50
2022-10-17T01:34:17.148Z,20.49
2022-10-17T01:37:17.470Z,20.49
2022-10-17T01:40:16.556Z,20.49
2022-10-17T01:43:22.054Z,20.48
2022-10-17T01:46:18.313Z,20.48
2022-10-17T01:49:07.206Z,20.48
2022-10-17T01:52:24.978Z,20.47
2022-10-17T01:55:16.771Z,20.46
2022-10-17T01:58:08.214Z,20.46
2022-10-17T02:00:56.607Z,20.47
2022-10-17T02:03:45.208Z,20.46
2022-10-17T02:06:34.900Z,20.45
2022-10-17T02:09:23.836Z,20.44
2022-10-17T02:12:12.023Z,20.44
2022-10-17T02:15:36.808Z,20.44
2022-10-17T02:18:28.290Z,20.44
2022-10-17T02:21:22.984Z,20.42
2022-10-17T02:24:17.878Z,20.42
2022-10-17T02:27:17.166Z,20.42
2022-10-17T02:30:14.696Z,20.42
2022-10-17T02:33:06.433Z,20.41
2022-10-17T02:35:56.942Z,20.41
2022-10-17T02:38:44.480Z,20.40
2022-10-17T02:41:32.994Z,20.41
2022-10-17T02:44:20.186Z,20.40
2022-10-17T02:47:31.609Z,20.39
2022-10-17T02:50:18.542Z,20.41
2022-10-17T02:53:15.388Z,20.38
2022-10-17T02:56:10.603Z,20.39
2022-10-17T02:58:59.712Z,20.38
2022-10-17T03:01:45.267Z,20.35
2022-10-17T03:04:30.408Z,20.35
2022-10-17T03:07:15.507Z,20.35
2022-10-17T03:10:00.774Z,20.35
2022-10-17T03:12:45.959Z,20.36
2022-10-17T03:15:31.391Z,20.35
2022-10-17T03:18:17.640Z,20.35
2022-10-17T03:21:04.505Z,20.34
2022-10-17T03:23:51.035Z,20.34
2022-10-17T03:26:38.243Z,20.30
2022-10-17T03:29:23.496Z,20.30
2022-10-17T03:32:08.791Z,20.31
2022-10-17T03:34:54.906Z,20.32
2022-10-17T03:37:40.180Z,20.32
2022-10-17T03:40:25.387Z,20.32
2022-10-17T03:43:11.923Z,20.32
2022-10-17T03:45:59.542Z,20.31
2022-10-17T03:48:44.821Z,20.30
2022-10-17T03:51:30.101Z,20.30
2022-10-17T03:54:21.482Z,20.31
2022-10-17T03:57:06.721Z,20.28
2022-10-17T03:59:52.581Z,20.29
2022-10-17T04:02:39.368Z,20.28
2022-10-17T04:05:24.596Z,20.29
2022-10-17T04:08:09.937Z,20.28
2022-10-17T04:11:20.288Z,20.29
2022-10-17T04:14:06.876Z,20.29
2022-10-17T04:16:53.538Z,20.31
2022-10-17T04:19:39.787Z,20.33
2022-10-17T04:22:25.618Z,20.35
2022-10-17T04:25:11.294Z,20.40
2022-10-17T04:28:00.030Z,20.41
2022-10-17T04:30:45.700Z,20.44
2022-10-17T04:33:33.483Z,20.43
2022-10-17T04:36:20.204Z,20.45
2022-10-17T04:39:06.003Z,20.47
2022-10-17T04:41:51.813Z,20.51
2022-10-17T04:44:37.729Z,20.53
2022-10-17T04:47:24.140Z,20.54
2022-10-17T04:50:09.630Z,20.60
2022-10-17T04:52:54.907Z,20.59
2022-10-17T04:55:40.613Z,20.61
2022-10-17T04:58:28.482Z,20.63
2022-10-17T05:01:16.254Z,20.60
2022-10-17T05:04:04.077Z,20.63
2022-10-17T05:06:49.286Z,20.61
2022-10-17T05:09:50.055Z,20.58
2022-10-17T05:12:36.789Z,20.57
2022-10-17T05:15:23.679Z,20.57
2022-10-17T05:18:11.507Z,20.54
2022-10-17T05:20:57.032Z,20.53
2022-10-17T05:23:42.961Z,20.53
2022-10-17T05:26:28.623Z,20.52
2022-10-17T05:29:14.926Z,20.51
2022-10-17T05:32:06.063Z,20.50
2022-10-17T05:34:52.966Z,20.49
2022-10-17T05:37:40.327Z,20.48
2022-10-17T05:40:25.607Z,20.48
2022-10-17T05:43:12.427Z,20.47
2022-10-17T05:45:57.950Z,20.46
2022-10-17T05:48:43.335Z,20.45
2022-10-17T05:51:28.683Z,20.45
2022-10-17T05:54:15.421Z,20.44
2022-10-17T05:57:00.626Z,20.43
2022-10-17T05:59:49.558Z,20.43
2022-10-17T06:02:38.320Z,20.42
2022-10-17T06:05:24.287Z,20.41
2022-10-17T06:08:09.787Z,20.40
2022-10-17T06:10:55.407Z,20.41
2022-10-17T06:13:41.594Z,20.40
2022-10-17T06:16:36.357Z,20.40
2022-10-17T06:19:21.797Z,20.38
2022-10-17T06:22:07.323Z,20.38
2022-10-17T06:24:53.934Z,20.38
2022-10-17T06:27:39.380Z,20.38
2022-10-17T06:30:25.701Z,20.35
2022-10-17T06:33:11.190Z,20.35
2022-10-17T06:35:56.941Z,20.37
2022-10-17T06:38:44.090Z,20.35
2022-10-17T06:41:56.990Z,20.34
2022-10-17T06:44:56.576Z,20.37
2022-10-17T06:47:55.361Z,20.36
2022-10-17T06:51:10.005Z,20.35
2022-10-17T06:54:05.232Z,20.37
2022-10-17T06:57:05.677Z,20.38
2022-10-17T07:00:09.761Z,20.40
2022-10-17T07:03:02.097Z,20.39
2022-10-17T07:05:52.274Z,20.41
2022-10-17T07:08:37.768Z,20.38
2022-10-17T07:11:23.505Z,20.41
2022-10-17T07:14:10.920Z,20.41
2022-10-17T07:16:56.598Z,20.43
2022-10-17T07:19:46.104Z,20.43
2022-10-17T07:22:31.530Z,20.45
2022-10-17T07:25:17.455Z,20.46
2022-10-17T07:28:08.575Z,20.46
2022-10-17T07:30:54.951Z,20.48
2022-10-17T07:33:40.238Z,20.49
2022-10-17T07:36:26.113Z,20.49
2022-10-17T07:39:13.016Z,20.50
2022-10-17T07:41:59.540Z,20.49
2022-10-17T07:44:47.470Z,20.49
2022-10-17T07:47:36.085Z,20.48
2022-10-17T07:50:24.670Z,20.47
2022-10-17T07:53:09.909Z,20.47
2022-10-17T07:55:55.245Z,20.45
2022-10-17T07:58:40.433Z,20.46
2022-10-17T08:01:26.004Z,20.45
2022-10-17T08:04:11.177Z,20.45
2022-10-17T08:07:05.629Z,20.44
2022-10-17T08:09:57.016Z,20.43
2022-10-17T08:12:42.461Z,20.43
2022-10-17T08:15:31.055Z,20.43
2022-10-17T08:18:18.334Z,20.41
2022-10-17T08:21:06.420Z,20.42
2022-10-17T08:23:51.791Z,20.42
2022-10-17T08:26:40.666Z,20.41
2022-10-17T08:29:29.222Z,20.41
2022-10-17T08:32:14.671Z,20.41
2022-10-17T08:35:00.088Z,20.41
2022-10-17T08:37:45.339Z,20.41
2022-10-17T08:40:35.533Z,20.41
2022-10-17T08:43:37.488Z,20.41
2022-10-17T08:46:28.676Z,20.42
2022-10-17T08:49:29.955Z,20.42
2022-10-17T08:52:25.453Z,20.42
2022-10-17T08:55:17.476Z,20.43
2022-10-17T08:58:02.912Z,20.44
2022-10-17T09:01:01.151Z,20.45
2022-10-17T09:04:27.258Z,20.46
2022-10-17T09:07:18.620Z,20.45
2022-10-17T09:10:10.569Z,20.44
2022-10-17T09:13:24.010Z,20.45
2022-10-17T09:16:30.245Z,20.47
2022-10-17T09:19:21.275Z,20.46
2022-10-17T09:22:16.064Z,20.46
2022-10-17T09:25:07.104Z,20.47
2022-10-17T09:27:59.345Z,20.51
2022-10-17T09:30:48.082Z,20.54
2022-10-17T09:33:53.975Z,20.55
2022-10-17T09:36:40.919Z,20.60
2022-10-17T09:39:29.229Z,20.62
2022-10-17T09:42:21.402Z,20.66
2022-10-17T09:45:26.161Z,20.69
2022-10-17T09:48:17.296Z,20.73
2022-10-17T09:51:14.756Z,20.74
2022-10-17T09:54:22.854Z,20.76
2022-10-17T09:57:10.590Z,20.81
2022-10-17T09:59:57.851Z,20.85
2022-10-17T10:02:43.413Z,20.87
2022-10-17T10:05:28.488Z,20.90
2022-10-17T10:08:17.200Z,20.93
2022-10-17T10:11:06.575Z,20.95
2022-10-17T10:13:53.085Z,20.97
2022-10-17T10:16:43.314Z,21.00
2022-10-17T10:19:31.290Z,21.03
2022-10-17T10:22:18.186Z,21.06
2022-10-17T10:25:16.778Z,21.08
2022-10-17T10:28:03.123Z,21.13
2022-10-17T10:30:51.359Z,21.15
2022-10-17T10:33:44.185Z,21.16
2022-10-17T10:36:44.914Z,21.15
2022-10-17T10:39:55.238Z,21.17
2022-10-17T10:42:42.068Z,21.16
2022-10-17T10:45:47.416Z,21.19
2022-10-17T10:48:37.644Z,21.21
2022-10-17T10:51:35.386Z,21.18
2022-10-17T10:54:35.731Z,21.20
2022-10-17T10:57:25.666Z,21.21
2022-10-17T11:00:22.362Z,21.22
2022-10-17T11:03:19.062Z,21.24
2022-10-17T11:06:13.799Z,21.24
2022-10-17T11:09:36.986Z,21.23
2022-10-17T11:12:33.124Z,21.27
2022-10-17T11:15:21.995Z,21.27
2022-10-17T11:18:11.269Z,21.29
2022-10-17T11:21:00.151Z,21.32
2022-10-17T11:24:18.747Z,21.31
2022-10-17T11:27:06.526Z,21.34
2022-10-17T11:29:51.838Z,21.34
2022-10-17T11:32:43.938Z,21.34
2022-10-17T11:35:43.976Z,21.37
2022-10-17T11:38:55.731Z,21.35
2022-10-17T11:41:49.904Z,21.35
2022-10-17T11:44:38.397Z,21.35
2022-10-17T11:47:38.268Z,21.35
2022-10-17T11:53:45.315Z,21.34
2022-10-17T11:56:49.744Z,21.33
2022-10-17T11:59:47.261Z,21.34
2022-10-17T12:02:48.635Z,21.34
2022-10-17T12:05:46.537Z,21.36
2022-10-17T12:09:01.352Z,21.36
2022-10-17T12:11:56.953Z,21.36
2022-10-17T12:14:48.357Z,21.37
2022-10-17T12:17:40.548Z,21.34
2022-10-17T12:20:37.121Z,21.36
2022-10-17T12:23:30.888Z,21.35
2022-10-17T12:26:26.738Z,21.38
2022-10-17T12:29:29.024Z,21.39
2022-10-17T12:32:15.470Z,21.35
2022-10-17T12:35:01.398Z,21.39
2022-10-17T12:37:57.340Z,21.39
2022-10-17T12:40:48.622Z,21.40
2022-10-17T12:43:42.685Z,21.40
2022-10-17T12:46:49.189Z,21.41
2022-10-17T12:49:41.848Z,21.41
2022-10-17T12:52:35.279Z,21.42
2022-10-17T12:55:24.943Z,21.41
2022-10-17T12:58:16.358Z,21.42
2022-10-17T13:01:24.066Z,21.41
2022-10-17T13:04:10.860Z,21.41
2022-10-17T13:06:59.175Z,21.42
2022-10-17T13:09:45.394Z,21.42
2022-10-17T13:12:38.931Z,21.43
2022-10-17T13:15:26.835Z,21.44
2022-10-17T13:18:19.136Z,21.44
2022-10-17T13:21:16.745Z,21.45
2022-10-17T13:24:19.994Z,21.46
2022-10-17T13:27:19.840Z,21.46
2022-10-17T13:30:37.795Z,21.48
2022-10-17T13:33:32.215Z,21.50
2022-10-17T13:36:19.714Z,21.51
2022-10-17T13:39:12.269Z,21.52
2022-10-17T13:41:59.618Z,21.53
2022-10-17T13:44:46.213Z,21.54
2022-10-17T13:47:36.675Z,21.51
2022-10-17T13:50:43.543Z,21.52
2022-10-17T13:53:35.242Z,21.52
2022-10-17T13:56:29.781Z,21.51
2022-10-17T13:59:40.177Z,21.51
2022-10-17T14:02:29.305Z,21.52
2022-10-17T14:05:20.505Z,21.53
2022-10-17T14:08:11.799Z,21.54
2022-10-17T14:10:58.536Z,21.54
2022-10-17T14:13:50.180Z,21.50
2022-10-17T14:16:39.064Z,21.54
2022-10-17T14:19:34.941Z,21.55
2022-10-17T14:22:23.303Z,21.54
2022-10-17T14:25:32.049Z,21.57
2022-10-17T14:28:18.457Z,21.58
2022-10-17T14:31:10.063Z,21.58
2022-10-17T14:33:55.851Z,21.62
2022-10-17T14:36:44.248Z,21.62
2022-10-17T14:39:29.875Z,21.62
2022-10-17T14:42:23.170Z,21.62
2022-10-17T14:45:14.859Z,21.62
2022-10-17T14:48:04.442Z,21.66
2022-10-17T14:51:19.549Z,21.67
2022-10-17T14:54:24.788Z,21.71
2022-10-17T14:57:22.231Z,21.72
2022-10-17T15:00:08.395Z,21.76
2022-10-17T15:02:55.060Z,21.77
2022-10-17T15:05:40.515Z,21.81
2022-10-17T15:08:25.978Z,21.83
2022-10-17T15:11:12.019Z,21.86
2022-10-17T15:13:57.356Z,21.84
2022-10-17T15:16:42.543Z,21.84
2022-10-17T15:19:27.877Z,21.84
2022-10-17T15:22:13.600Z,21.84
2022-10-17T15:24:59.170Z,21.85
2022-10-17T15:27:44.445Z,21.81
2022-10-17T15:30:32.459Z,21.79
2022-10-17T15:33:18.031Z,21.76
2022-10-17T15:36:03.564Z,21.71
2022-10-17T15:38:50.592Z,21.72
2022-10-17T15:41:35.977Z,21.67
2022-10-17T15:44:21.410Z,21.69
2022-10-17T15:47:07.137Z,21.71
2022-10-17T15:49:53.314Z,21.74
2022-10-17T15:52:39.008Z,21.74
2022-10-17T15:55:24.498Z,21.72
2022-10-17T15:58:15.327Z,21.73
2022-10-17T16:01:00.921Z,21.76
2022-10-17T16:03:49.793Z,21.74
2022-10-17T16:06:35.690Z,21.74
2022-10-17T16:09:21.527Z,21.74
2022-10-17T16:12:14.361Z,21.74
2022-10-17T16:14:59.932Z,21.73
2022-10-17T16:17:45.960Z,21.74
2022-10-17T16:20:32.085Z,21.75
2022-10-17T16:23:17.248Z,21.70
2022-10-17T16:26:03.014Z,21.74
2022-10-17T16:28:48.988Z,21.72
2022-10-17T16:31:36.521Z,21.75
2022-10-17T16:34:22.218Z,21.76
2022-10-17T16:37:07.871Z,21.74
2022-10-17T16:39:53.672Z,21.73
2022-10-17T16:42:38.980Z,21.73
2022-10-17T16:45:24.353Z,21.69
2022-10-17T16:48:10.643Z,21.72
2022-10-17T16:50:56.134Z,21.69
2022-10-17T16:53:45.686Z,21.72
2022-10-17T16:56:33.048Z,21.74
2022-10-17T16:59:18.826Z,21.75
2022-10-17T17:02:04.395Z,21.78
2022-10-17T17:04:49.967Z,21.81
2022-10-17T17:07:35.429Z,21.79
2022-10-17T17:10:20.698Z,21.80
2022-10-17T17:13:05.978Z,21.83
2022-10-17T17:15:53.739Z,21.83
2022-10-17T17:18:40.418Z,21.83
2022-10-17T17:21:27.831Z,21.83
2022-10-17T17:24:13.951Z,21.81
2022-10-17T17:26:59.922Z,21.80
2022-10-17T17:29:47.344Z,21.78
2022-10-17T17:32:33.121Z,21.77
2022-10-17T17:35:18.673Z,21.77
2022-10-17T17:38:04.560Z,21.76
2022-10-17T17:40:51.302Z,21.74
2022-10-17T17:43:36.493Z,21.73
2022-10-17T17:46:22.939Z,21.72
2022-10-17T17:49:09.482Z,21.68
2022-10-17T17:51:55.005Z,21.68
2022-10-17T17:54:41.058Z,21.69
2022-10-17T17:57:29.375Z,21.72
2022-10-17T18:00:15.034Z,21.72
2022-10-17T18:03:02.293Z,21.69
2022-10-17T18:05:48.583Z,21.69
2022-10-17T18:08:35.319Z,21.68
2022-10-17T18:11:22.207Z,21.68
2022-10-17T18:14:12.202Z,21.65
2022-10-17T18:16:57.958Z,21.61
2022-10-17T18:19:43.430Z,21.58
2022-10-17T18:22:29.060Z,21.56
2022-10-17T18:25:14.738Z,21.53
2022-10-17T18:28:00.687Z,21.48
2022-10-17T18:30:46.445Z,21.45
2022-10-17T18:33:31.792Z,21.44
2022-10-17T18:36:17.237Z,21.41
2022-10-17T18:39:02.456Z,21.38
2022-10-17T18:41:47.778Z,21.36
2022-10-17T18:44:33.256Z,21.33
2022-10-17T18:47:18.366Z,21.33
2022-10-17T18:50:03.879Z,21.31
2022-10-17T18:52:49.803Z,21.27
2022-10-17T18:55:39.471Z,21.25
2022-10-17T18:58:25.138Z,21.22
2022-10-17T19:01:17.847Z,21.20
2022-10-17T19:04:03.223Z,21.17
2022-10-17T19:06:48.555Z,21.14
2022-10-17T19:09:34.142Z,21.13
2022-10-17T19:12:19.725Z,21.09
2022-10-17T19:15:05.395Z,21.09
2022-10-17T19:17:50.983Z,21.07
2022-10-17T19:20:36.502Z,21.06
2022-10-17T19:23:22.109Z,21.04
2022-10-17T19:26:12.737Z,21.02
2022-10-17T19:29:00.332Z,21.02
2022-10-17T19:31:47.579Z,21.01
2022-10-17T19:34:33.240Z,21.00
2022-10-17T19:37:18.771Z,20.99
2022-10-17T19:40:04.818Z,20.98
2022-10-17T19:42:50.626Z,20.97
2022-10-17T19:45:36.140Z,20.96
2022-10-17T19:48:21.552Z,20.95
2022-10-17T19:51:08.853Z,20.94
2022-10-17T19:53:56.763Z,20.94
2022-10-17T19:56:43.467Z,20.93
2022-10-17T19:59:28.912Z,20.92
2022-10-17T20:02:14.260Z,20.92
2022-10-17T20:05:17.640Z,20.91
2022-10-17T20:08:03.909Z,20.89
2022-10-17T20:10:49.107Z,20.89
2022-10-17T20:13:35.860Z,20.89
2022-10-17T20:16:26.631Z,20.88
2022-10-17T20:19:13.048Z,20.88
2022-10-17T20:21:58.514Z,20.87
2022-10-17T20:24:43.787Z,20.86
2022-10-17T20:27:29.000Z,20.85
2022-10-17T20:30:14.457Z,20.85
2022-10-17T20:32:59.953Z,20.83
2022-10-17T20:38:35.945Z,20.81
2022-10-17T20:41:21.693Z,20.80
2022-10-17T20:44:07.158Z,20.81
2022-10-17T20:47:01.581Z,20.79
2022-10-17T20:49:48.159Z,20.77
2022-10-17T20:52:33.350Z,20.76
2022-10-17T20:55:18.737Z,20.76
2022-10-17T20:58:04.231Z,20.76
2022-10-17T21:00:49.710Z,20.75
2022-10-17T21:03:38.719Z,20.74
2022-10-17T21:11:57.544Z,20.73
2022-10-17T21:14:42.677Z,20.71
2022-10-17T21:17:28.235Z,20.71
2022-10-17T21:20:13.379Z,20.70
2022-10-17T21:23:00.571Z,20.70
2022-10-17T21:25:46.183Z,20.69
2022-10-17T21:28:32.415Z,20.67
2022-10-17T21:31:18.797Z,20.67
2022-10-17T21:34:15.694Z,20.66
2022-10-17T21:37:01.234Z,20.65
2022-10-17T21:39:46.619Z,20.64
2022-10-17T21:42:32.187Z,20.64
2022-10-17T21:45:25.372Z,20.64
2022-10-17T21:48:12.949Z,20.64
2022-10-17T21:51:01.153Z,20.63
2022-10-17T21:53:46.867Z,20.63
2022-10-17T21:56:33.945Z,20.61
2022-10-17T21:59:19.364Z,20.61
2022-10-17T22:02:04.553Z,20.61
2022-10-17T22:04:49.815Z,20.59
2022-10-17T22:07:35.263Z,20.58
2022-10-17T22:10:20.547Z,20.57
2022-10-17T22:13:06.249Z,20.57
2022-10-17T22:15:51.630Z,20.56
2022-10-17T22:18:37.583Z,20.56
2022-10-17T22:21:23.549Z,20.54
2022-10-17T22:24:12.368Z,20.54
2022-10-17T22:26:57.612Z,20.54
2022-10-17T22:29:42.801Z,20.53
2022-10-17T22:32:28.012Z,20.54
2022-10-17T22:35:13.484Z,20.52
2022-10-17T22:37:58.930Z,20.52
2022-10-17T22:40:45.669Z,20.51
2022-10-17T22:43:31.141Z,20.52
2022-10-17T22:46:17.095Z,20.50
2022-10-17T22:49:02.908Z,20.51
2022-10-17T22:51:48.371Z,20.50
2022-10-17T22:54:33.615Z,20.49
2022-10-17T22:57:18.774Z,20.50
2022-10-17T23:00:06.033Z,20.49
2022-10-17T23:02:54.464Z,20.48
2022-10-17T23:05:40.203Z,20.48
2022-10-17T23:08:26.557Z,20.47
2022-10-17T23:11:12.656Z,20.47
2022-10-17T23:13:57.903Z,20.47
2022-10-17T23:16:43.199Z,20.47
2022-10-17T23:19:28.451Z,20.47
2022-10-17T23:22:13.836Z,20.46
2022-10-17T23:24:59.047Z,20.46
2022-10-17T23:27:44.242Z,20.45
2022-10-17T23:30:33.363Z,20.45
2022-10-17T23:33:19.428Z,20.45
2022-10-17T23:36:05.359Z,20.44
2022-10-17T23:38:52.715Z,20.44
2022-10-17T23:41:40.607Z,20.44
2022-10-17T23:44:25.905Z,20.43
2022-10-17T23:47:11.202Z,20.43
2022-10-17T23:49:56.900Z,20.42
2022-10-17T23:52:42.204Z,20.44
2022-10-17T23:55:27.433Z,20.43
2022-10-17T23:58:12.752Z,20.42
